Zaporizhzhia, Ukraine
Current Conditions -  °F | °C
As of 2:30 PM on Thursday 27 Nov 2014 (Local Time) from UKDE Reporting Station
Broken Clouds Broken Clouds  
Wind Chill: 19°   Ceiling: 1400
Heat Index: 27°   Visibility: 6mi
Dew Point: 23°   Wind: 7mph
Humidity: 86%   Direction: 40°NE
Pressure: 30.24"   Gusts: NA
Location:  47.85°N, 35.16°E
Report Text: UKDE 271130Z 04003MPS 020V080 9999 BKN014 M03/M05 Q1024 02450463 NOSIG
Loading
Personal Weather Stations






























Interactive Weather Map New forecast layout! Learn more

10-Day Weather Forecast

Advertisements
Track Severe Weather on mobile